createdAt,value
2023-08-29T00:00:45.591Z,6.20
2023-08-29T00:03:13.528Z,7.50
2023-08-29T00:05:41.532Z,6.72
2023-08-29T00:08:09.469Z,5.78
2023-08-29T00:10:37.421Z,8.15
2023-08-29T00:13:05.854Z,7.22
2023-08-29T00:15:33.867Z,7.15
2023-08-29T00:18:03.873Z,6.20
2023-08-29T00:20:33.940Z,7.30
2023-08-29T00:23:01.853Z,7.15
2023-08-29T00:25:29.758Z,6.72
2023-08-29T00:27:57.684Z,7.10
2023-08-29T00:30:25.673Z,7.07
2023-08-29T00:32:53.585Z,6.57
2023-08-29T00:35:22.911Z,6.05
2023-08-29T00:37:50.774Z,6.45
2023-08-29T00:40:18.691Z,6.03
2023-08-29T00:42:46.604Z,6.93
2023-08-29T00:45:14.541Z,6.05
2023-08-29T00:47:42.599Z,5.60
2023-08-29T00:50:11.117Z,6.10
2023-08-29T00:52:40.387Z,5.00
2023-08-29T00:55:09.789Z,7.78
2023-08-29T00:57:38.113Z,5.63
2023-08-29T01:00:08.018Z,5.78
2023-08-29T01:02:36.007Z,5.75
2023-08-29T01:05:05.053Z,5.63
2023-08-29T01:07:33.044Z,5.82
2023-08-29T01:10:02.354Z,6.40
2023-08-29T01:12:40.685Z,6.28
2023-08-29T01:15:13.582Z,5.93
2023-08-29T01:17:44.983Z,5.68
2023-08-29T01:20:13.155Z,6.72
2023-08-29T01:23:04.089Z,8.40
2023-08-29T01:25:45.246Z,5.93
2023-08-29T01:28:14.750Z,5.75
2023-08-29T01:30:43.344Z,7.25
2023-08-29T01:33:11.665Z,6.05
2023-08-29T01:35:44.845Z,6.00
2023-08-29T01:38:12.731Z,6.18
2023-08-29T01:40:40.679Z,6.47
2023-08-29T01:43:08.591Z,6.80
2023-08-29T01:45:38.013Z,5.80
2023-08-29T01:48:06.637Z,6.90
2023-08-29T01:50:35.490Z,7.20
2023-08-29T01:53:03.831Z,6.55
2023-08-29T01:55:32.499Z,11.18
2023-08-29T01:58:01.654Z,7.25
2023-08-29T02:00:29.835Z,7.05
2023-08-29T02:02:59.195Z,8.07
2023-08-29T02:05:27.426Z,7.15
2023-08-29T02:07:55.344Z,7.82
2023-08-29T02:10:23.283Z,8.63
2023-08-29T02:12:51.228Z,8.82
2023-08-29T02:15:19.362Z,8.48
2023-08-29T02:17:47.646Z,7.78
2023-08-29T02:20:16.978Z,8.50
2023-08-29T02:22:45.054Z,8.88
2023-08-29T02:25:12.959Z,9.13
2023-08-29T02:27:40.842Z,7.93
2023-08-29T02:30:11.303Z,9.40
2023-08-29T02:32:39.809Z,7.35
2023-08-29T02:35:09.130Z,7.72
2023-08-29T02:37:38.662Z,8.93
2023-08-29T02:40:09.983Z,8.73
2023-08-29T02:42:38.446Z,8.25
2023-08-29T02:45:07.180Z,9.57
2023-08-29T02:47:35.781Z,9.45
2023-08-29T02:50:04.717Z,9.35
2023-08-29T02:52:32.620Z,9.95
2023-08-29T02:55:01.886Z,10.27
2023-08-29T02:57:29.779Z,12.88
2023-08-29T02:59:59.029Z,11.60
2023-08-29T03:02:26.909Z,12.55
2023-08-29T03:04:54.853Z,11.65
2023-08-29T03:07:22.840Z,12.93
2023-08-29T03:09:50.770Z,12.88
2023-08-29T03:12:20.016Z,16.45
2023-08-29T03:14:47.916Z,12.45
2023-08-29T03:17:15.865Z,12.40
2023-08-29T03:19:43.782Z,13.20
2023-08-29T03:22:11.652Z,11.88
2023-08-29T03:24:39.617Z,12.48
2023-08-29T03:27:07.516Z,13.93
2023-08-29T03:29:36.900Z,12.65
2023-08-29T03:32:05.403Z,12.85
2023-08-29T03:34:33.350Z,12.90
2023-08-29T03:37:01.293Z,13.80
2023-08-29T03:39:29.748Z,11.77
2023-08-29T03:41:57.615Z,12.98
2023-08-29T03:44:25.632Z,11.95
2023-08-29T03:46:57.362Z,13.10
2023-08-29T03:49:25.642Z,12.23
2023-08-29T03:51:53.596Z,12.05
2023-08-29T03:54:21.602Z,12.52
2023-08-29T03:56:50.259Z,10.90
2023-08-29T03:59:18.157Z,12.00
2023-08-29T04:01:46.156Z,12.57
2023-08-29T04:04:15.952Z,13.55
2023-08-29T04:06:45.068Z,17.42
2023-08-29T04:09:13.067Z,11.57
2023-08-29T04:11:40.952Z,11.32
2023-08-29T04:14:08.926Z,10.90
2023-08-29T04:16:36.842Z,12.43
2023-08-29T04:19:05.027Z,12.27
2023-08-29T04:21:34.315Z,12.73
2023-08-29T04:24:04.084Z,11.40
2023-08-29T04:26:31.980Z,11.07
2023-08-29T04:29:02.148Z,11.23
2023-08-29T04:31:30.220Z,11.82
2023-08-29T04:34:00.389Z,11.27
2023-08-29T04:36:28.321Z,15.13
2023-08-29T04:38:57.577Z,13.80
2023-08-29T04:41:25.484Z,18.17
2023-08-29T04:43:53.436Z,14.13
2023-08-29T04:46:21.360Z,13.73
2023-08-29T04:48:49.357Z,24.27
2023-08-29T04:51:17.366Z,22.77
2023-08-29T04:53:45.298Z,13.05
2023-08-29T04:56:14.561Z,13.15
2023-08-29T04:58:42.738Z,13.60
2023-08-29T05:01:11.406Z,12.85
2023-08-29T05:03:39.511Z,12.50
2023-08-29T05:06:07.391Z,13.38
2023-08-29T05:08:37.449Z,14.55
2023-08-29T05:11:05.711Z,12.93
2023-08-29T05:13:35.068Z,14.75
2023-08-29T05:16:04.290Z,14.38
2023-08-29T05:18:32.325Z,14.10
2023-08-29T05:21:00.750Z,15.75
2023-08-29T05:23:28.744Z,16.90
2023-08-29T05:25:56.610Z,12.45
2023-08-29T05:28:24.570Z,14.07
2023-08-29T05:30:53.932Z,13.23
2023-08-29T05:33:21.886Z,15.60
2023-08-29T05:35:49.764Z,12.90
2023-08-29T05:38:17.616Z,15.93
2023-08-29T05:40:45.524Z,18.27
2023-08-29T05:43:13.456Z,19.55
2023-08-29T05:45:43.334Z,17.70
2023-08-29T05:48:12.748Z,18.48
2023-08-29T05:50:41.130Z,17.30
2023-08-29T05:53:09.360Z,16.20
2023-08-29T05:55:37.340Z,14.77
2023-08-29T05:58:05.778Z,12.70
2023-08-29T06:00:33.949Z,14.48
2023-08-29T06:03:05.288Z,13.13
2023-08-29T06:05:34.907Z,14.30
2023-08-29T06:08:13.323Z,12.55
2023-08-29T06:10:47.311Z,14.40
2023-08-29T06:13:15.327Z,17.05
2023-08-29T06:15:43.285Z,13.32
2023-08-29T06:18:11.332Z,15.27
2023-08-29T06:20:40.703Z,16.58
2023-08-29T06:23:08.747Z,17.88
2023-08-29T06:25:36.839Z,15.13
2023-08-29T06:28:05.443Z,15.23
2023-08-29T06:30:33.770Z,14.75
2023-08-29T06:33:01.729Z,16.63
2023-08-29T06:35:30.241Z,15.38
2023-08-29T06:37:59.635Z,15.55
2023-08-29T06:40:27.547Z,14.90
2023-08-29T06:42:55.458Z,16.67
2023-08-29T06:45:24.187Z,15.95
2023-08-29T06:47:53.862Z,16.00
2023-08-29T06:50:21.884Z,15.05
2023-08-29T06:52:49.835Z,15.23
2023-08-29T06:55:19.483Z,15.38
2023-08-29T06:57:47.410Z,16.58
2023-08-29T07:00:17.791Z,14.65
2023-08-29T07:02:45.772Z,15.77
2023-08-29T07:05:13.742Z,14.50
2023-08-29T07:07:42.552Z,15.38
2023-08-29T07:10:11.872Z,14.05
2023-08-29T07:12:41.546Z,13.75
2023-08-29T07:15:09.983Z,15.10
2023-08-29T07:17:38.035Z,14.73
2023-08-29T07:20:09.954Z,14.48
2023-08-29T07:22:38.852Z,13.90
2023-08-29T07:25:07.621Z,14.48
2023-08-29T07:27:35.589Z,14.70
2023-08-29T07:30:06.953Z,14.68
2023-08-29T07:32:35.277Z,14.27
2023-08-29T07:35:03.776Z,14.68
2023-08-29T07:37:31.755Z,14.57
2023-08-29T07:39:59.636Z,14.10
2023-08-29T07:42:27.550Z,15.20
2023-08-29T07:44:55.497Z,14.60
2023-08-29T07:47:24.777Z,15.27
2023-08-29T07:49:52.706Z,13.88
2023-08-29T07:52:20.631Z,14.38
2023-08-29T07:54:48.650Z,14.60
2023-08-29T07:57:16.528Z,14.68
2023-08-29T07:59:44.410Z,13.63
2023-08-29T08:02:12.358Z,14.68
2023-08-29T08:04:41.653Z,15.13
2023-08-29T08:07:09.883Z,14.88
2023-08-29T08:09:38.634Z,14.50
2023-08-29T08:12:07.239Z,14.30
2023-08-29T08:14:35.150Z,15.48
2023-08-29T08:17:03.093Z,14.43
2023-08-29T08:19:31.405Z,17.67
2023-08-29T08:22:00.865Z,13.65
2023-08-29T08:24:28.882Z,15.20
2023-08-29T08:26:56.811Z,13.30
2023-08-29T08:29:24.741Z,13.75
2023-08-29T08:31:52.694Z,13.27
2023-08-29T08:34:20.679Z,13.00
2023-08-29T08:36:48.630Z,14.02
2023-08-29T08:39:17.875Z,13.30
2023-08-29T08:41:46.115Z,13.45
2023-08-29T08:44:17.121Z,13.35
2023-08-29T08:46:46.146Z,12.55
2023-08-29T08:49:14.576Z,12.75
2023-08-29T08:51:43.077Z,12.85
2023-08-29T08:54:11.485Z,11.77
2023-08-29T08:56:41.072Z,12.13
2023-08-29T08:59:09.467Z,12.27
2023-08-29T09:01:37.429Z,11.10
2023-08-29T09:04:05.595Z,11.57
2023-08-29T09:06:33.584Z,11.18
2023-08-29T09:09:17.237Z,10.98
2023-08-29T09:11:52.788Z,11.27
2023-08-29T09:14:21.022Z,10.68
2023-08-29T09:16:49.047Z,10.23
2023-08-29T09:19:18.891Z,10.63
2023-08-29T09:21:47.330Z,10.80
2023-08-29T09:24:15.224Z,10.30
2023-08-29T09:26:43.192Z,10.88
2023-08-29T09:29:20.792Z,9.15
2023-08-29T09:31:48.984Z,9.77
2023-08-29T09:34:30.102Z,8.60
2023-08-29T09:36:58.971Z,9.18
2023-08-29T09:39:26.972Z,10.02
2023-08-29T09:42:05.333Z,7.13
2023-08-29T09:44:38.740Z,6.15
2023-08-29T09:47:07.087Z,7.80
2023-08-29T09:49:43.722Z,6.93
2023-08-29T09:52:12.270Z,7.53
2023-08-29T09:54:46.087Z,7.07
2023-08-29T09:57:16.313Z,6.72
2023-08-29T09:59:45.988Z,6.82
2023-08-29T10:02:15.681Z,7.20
2023-08-29T10:04:47.361Z,7.38
2023-08-29T10:07:17.631Z,5.32
2023-08-29T10:09:45.995Z,4.40
2023-08-29T10:12:14.736Z,3.60
2023-08-29T10:14:45.826Z,4.95
2023-08-29T10:17:29.537Z,5.05
2023-08-29T10:19:59.821Z,4.47
2023-08-29T10:22:30.750Z,5.20
2023-08-29T10:25:00.276Z,5.07
2023-08-29T10:27:28.299Z,5.10
2023-08-29T10:29:57.808Z,4.90
2023-08-29T10:32:27.981Z,5.72
2023-08-29T10:34:58.891Z,5.50
2023-08-29T10:37:28.272Z,5.28
2023-08-29T10:39:56.379Z,4.57
2023-08-29T10:42:24.319Z,4.72
2023-08-29T10:44:52.262Z,4.63
2023-08-29T10:47:25.200Z,5.28
2023-08-29T10:49:59.126Z,5.38
2023-08-29T10:52:36.487Z,4.22
2023-08-29T10:55:06.672Z,4.65
2023-08-29T10:57:34.600Z,4.60
2023-08-29T11:00:02.521Z,4.22
2023-08-29T11:02:32.927Z,4.95
2023-08-29T11:05:15.081Z,4.38
2023-08-29T11:07:43.725Z,4.40
2023-08-29T11:10:19.345Z,4.25
2023-08-29T11:13:12.318Z,6.20
2023-08-29T11:16:17.158Z,3.92
2023-08-29T11:18:48.202Z,4.38
2023-08-29T11:21:18.956Z,4.75
2023-08-29T11:23:47.058Z,4.72
2023-08-29T11:26:15.568Z,5.03
2023-08-29T11:28:46.412Z,4.07
2023-08-29T11:31:14.609Z,4.20
2023-08-29T11:33:42.617Z,5.40
2023-08-29T11:36:11.963Z,3.97
2023-08-29T11:38:39.901Z,4.00
2023-08-29T11:41:31.429Z,4.32
2023-08-29T11:44:34.729Z,3.78
2023-08-29T11:46:47.546Z,4.20
2023-08-29T11:49:16.540Z,5.35
2023-08-29T11:51:46.428Z,5.22
2023-08-29T11:54:42.386Z,5.70
2023-08-29T11:57:13.125Z,4.07
2023-08-29T11:59:42.588Z,4.43
2023-08-29T12:02:13.114Z,3.75
2023-08-29T12:04:42.398Z,3.00
2023-08-29T12:07:12.782Z,4.30
2023-08-29T12:09:43.750Z,4.20
2023-08-29T12:12:29.104Z,3.78
2023-08-29T12:14:57.116Z,4.25
2023-08-29T12:17:34.907Z,4.80
2023-08-29T12:20:02.900Z,3.05
2023-08-29T12:22:32.754Z,3.50
2023-08-29T12:25:00.725Z,2.40
2023-08-29T12:27:28.945Z,2.40
2023-08-29T12:29:56.908Z,2.25
2023-08-29T12:32:28.239Z,3.65
2023-08-29T12:34:57.054Z,4.45
2023-08-29T12:37:25.282Z,3.65
2023-08-29T12:39:54.753Z,4.82
2023-08-29T12:42:22.868Z,5.38
2023-08-29T12:44:50.856Z,4.05
2023-08-29T12:47:18.760Z,5.38
2023-08-29T12:49:46.628Z,4.72
2023-08-29T12:52:15.702Z,4.10
2023-08-29T12:54:44.264Z,3.25
2023-08-29T12:57:13.618Z,3.15
2023-08-29T12:59:41.499Z,3.50
2023-08-29T13:02:09.886Z,3.67
2023-08-29T13:04:37.809Z,4.40
2023-08-29T13:07:06.401Z,4.43
2023-08-29T13:09:38.029Z,4.13
2023-08-29T13:12:08.473Z,5.45
2023-08-29T13:14:40.183Z,3.70
2023-08-29T13:17:11.880Z,3.83
2023-08-29T13:19:42.079Z,4.40
2023-08-29T13:22:10.000Z,3.67
2023-08-29T13:24:38.094Z,2.83
2023-08-29T13:27:06.852Z,3.13
2023-08-29T13:29:34.794Z,3.47
2023-08-29T13:32:04.361Z,4.00
2023-08-29T13:34:32.287Z,3.03
2023-08-29T13:37:00.187Z,5.75
2023-08-29T13:39:28.299Z,5.60
2023-08-29T13:41:56.275Z,7.47
2023-08-29T13:44:24.297Z,4.82
2023-08-29T13:46:52.243Z,4.60
2023-08-29T13:49:21.921Z,5.78
2023-08-29T13:51:50.501Z,6.13
2023-08-29T13:54:18.424Z,5.20
2023-08-29T13:56:46.470Z,5.82
2023-08-29T13:59:14.355Z,6.13
2023-08-29T14:01:42.323Z,4.70
2023-08-29T14:04:10.314Z,6.47
2023-08-29T14:06:39.682Z,6.20
2023-08-29T14:09:07.836Z,6.35
2023-08-29T14:11:35.788Z,4.22
2023-08-29T14:14:03.878Z,6.00
2023-08-29T14:16:31.820Z,7.72
2023-08-29T14:18:59.776Z,6.30
2023-08-29T14:21:27.787Z,5.90
2023-08-29T14:23:57.041Z,4.43
2023-08-29T14:26:24.991Z,3.78
2023-08-29T14:28:52.889Z,5.22
2023-08-29T14:31:24.250Z,3.38
2023-08-29T14:33:53.144Z,4.78
2023-08-29T14:36:21.268Z,3.65
2023-08-29T14:38:49.142Z,4.03
2023-08-29T14:41:18.464Z,4.60
2023-08-29T14:43:46.344Z,3.78
2023-08-29T14:46:14.420Z,4.68
2023-08-29T14:48:42.717Z,3.83
2023-08-29T14:51:10.886Z,3.25
2023-08-29T14:53:40.764Z,4.07
2023-08-29T14:56:08.924Z,3.95
2023-08-29T14:58:38.326Z,3.28
2023-08-29T15:01:06.568Z,2.97
2023-08-29T15:03:35.530Z,4.35
2023-08-29T15:06:04.796Z,2.72
2023-08-29T15:08:32.805Z,5.50
2023-08-29T15:11:00.760Z,5.32
2023-08-29T15:13:29.250Z,4.85
2023-08-29T15:16:02.055Z,3.05
2023-08-29T15:18:31.011Z,5.32
2023-08-29T15:20:59.514Z,2.97
2023-08-29T15:23:30.897Z,2.83
2023-08-29T15:25:59.246Z,3.35
2023-08-29T15:28:30.026Z,2.60
2023-08-29T15:30:59.968Z,3.30
2023-08-29T15:33:29.371Z,3.20
2023-08-29T15:35:58.096Z,3.08
2023-08-29T15:38:26.448Z,4.00
2023-08-29T15:40:56.532Z,3.55
2023-08-29T15:43:25.657Z,2.35
2023-08-29T15:45:54.171Z,3.35
2023-08-29T15:48:22.153Z,4.45
2023-08-29T15:50:54.323Z,2.78
2023-08-29T15:53:22.266Z,6.55
2023-08-29T15:55:50.549Z,5.20
2023-08-29T15:58:18.557Z,4.13
2023-08-29T16:00:46.480Z,2.72
2023-08-29T16:03:14.532Z,2.10
2023-08-29T16:05:42.561Z,2.45
2023-08-29T16:08:11.878Z,5.05
2023-08-29T16:10:42.045Z,2.58
2023-08-29T16:13:10.097Z,4.05
2023-08-29T16:15:38.068Z,2.55
2023-08-29T16:18:06.562Z,2.80
2023-08-29T16:20:34.804Z,3.13
2023-08-29T16:23:02.763Z,3.15
2023-08-29T16:25:32.471Z,2.50
2023-08-29T16:28:02.896Z,2.67
2023-08-29T16:30:32.166Z,3.88
2023-08-29T16:33:00.487Z,6.03
2023-08-29T16:35:28.518Z,2.53
2023-08-29T16:38:02.275Z,2.42
2023-08-29T16:40:32.365Z,2.40
2023-08-29T16:43:00.552Z,3.22
2023-08-29T16:45:28.581Z,3.05
2023-08-29T16:47:57.050Z,2.33
2023-08-29T16:50:25.079Z,4.15
2023-08-29T16:52:52.979Z,2.33
2023-08-29T16:55:21.786Z,2.75
2023-08-29T16:57:51.302Z,2.08
2023-08-29T17:00:20.025Z,3.42
2023-08-29T17:02:48.056Z,2.13
2023-08-29T17:05:16.377Z,2.53
2023-08-29T17:07:44.683Z,4.22
2023-08-29T17:10:12.607Z,2.70
2023-08-29T17:12:41.673Z,3.80
2023-08-29T17:15:13.947Z,2.42
2023-08-29T17:17:41.895Z,3.13
2023-08-29T17:20:10.956Z,2.20
2023-08-29T17:22:38.959Z,2.78
2023-08-29T17:25:07.599Z,3.22
2023-08-29T17:27:35.581Z,5.78
2023-08-29T17:30:06.433Z,7.05
2023-08-29T17:32:35.803Z,3.90
2023-08-29T17:35:03.843Z,3.67
2023-08-29T17:37:31.817Z,5.38
2023-08-29T17:39:59.782Z,6.13
2023-08-29T17:42:27.725Z,4.65
2023-08-29T17:44:56.893Z,3.35
2023-08-29T17:47:24.927Z,3.45
2023-08-29T17:49:54.401Z,2.72
2023-08-29T17:52:22.398Z,3.40
2023-08-29T17:54:50.340Z,2.78
2023-08-29T17:57:18.256Z,2.92
2023-08-29T17:59:46.175Z,5.65
2023-08-29T18:02:15.824Z,6.10
2023-08-29T18:04:44.414Z,4.00
2023-08-29T18:07:15.216Z,2.85
2023-08-29T18:10:11.714Z,6.57
2023-08-29T18:12:40.145Z,3.88
2023-08-29T18:15:09.367Z,5.60
2023-08-29T18:17:37.511Z,8.50
2023-08-29T18:20:07.026Z,6.00
2023-08-29T18:22:37.477Z,3.97
2023-08-29T18:25:06.184Z,3.33
2023-08-29T18:27:34.108Z,3.95
2023-08-29T18:30:02.163Z,5.50
2023-08-29T18:32:32.723Z,6.80
2023-08-29T18:35:00.916Z,2.78
2023-08-29T18:37:28.899Z,5.78
2023-08-29T18:39:58.375Z,4.75
2023-08-29T18:42:26.315Z,5.00
2023-08-29T18:44:54.252Z,10.68
2023-08-29T18:47:22.197Z,6.63
2023-08-29T18:49:50.425Z,11.82
2023-08-29T18:52:18.378Z,4.10
2023-08-29T18:54:46.328Z,5.70
2023-08-29T18:57:15.648Z,7.90
2023-08-29T18:59:44.004Z,6.47
2023-08-29T19:02:11.967Z,7.72
2023-08-29T19:04:39.948Z,5.65
2023-08-29T19:07:08.321Z,8.45
2023-08-29T19:09:36.303Z,6.45
2023-08-29T19:12:04.571Z,6.63
2023-08-29T19:14:33.846Z,6.70
2023-08-29T19:17:01.750Z,7.40
2023-08-29T19:19:29.816Z,6.15
2023-08-29T19:21:57.797Z,6.63
2023-08-29T19:24:25.770Z,4.55
2023-08-29T19:26:53.670Z,6.10
2023-08-29T19:29:22.860Z,9.20
2023-08-29T19:31:52.125Z,7.97
2023-08-29T19:34:20.123Z,3.47
2023-08-29T19:36:50.588Z,4.35
2023-08-29T19:39:19.134Z,3.22
2023-08-29T19:41:47.196Z,10.70
2023-08-29T19:44:17.272Z,3.17
2023-08-29T19:46:45.683Z,4.00
2023-08-29T19:49:16.059Z,3.53
2023-08-29T19:51:44.697Z,3.58
2023-08-29T19:54:12.716Z,3.95
2023-08-29T19:56:40.745Z,5.10
2023-08-29T19:59:08.700Z,6.25
2023-08-29T20:01:36.694Z,4.88
2023-08-29T20:04:05.327Z,8.32
2023-08-29T20:06:34.730Z,5.45
2023-08-29T20:09:02.649Z,4.53
2023-08-29T20:11:30.562Z,6.50
2023-08-29T20:13:58.471Z,6.03
2023-08-29T20:16:26.484Z,6.13
2023-08-29T20:18:55.620Z,4.15
2023-08-29T20:21:23.764Z,4.72
2023-08-29T20:24:02.122Z,3.60
2023-08-29T20:26:32.104Z,4.40
2023-08-29T20:29:01.192Z,5.65
2023-08-29T20:31:29.339Z,3.60
2023-08-29T20:33:57.378Z,4.13
2023-08-29T20:36:25.478Z,3.10
2023-08-29T20:38:54.775Z,7.40
2023-08-29T20:41:22.778Z,5.00
2023-08-29T20:43:50.848Z,5.80
2023-08-29T20:46:18.969Z,6.55
2023-08-29T20:48:52.296Z,5.68
2023-08-29T20:51:20.401Z,4.13
2023-08-29T20:53:48.386Z,7.32
2023-08-29T20:56:17.702Z,4.22
2023-08-29T20:58:45.755Z,3.55
2023-08-29T21:01:13.920Z,3.30
2023-08-29T21:03:42.036Z,4.78
2023-08-29T21:06:10.032Z,4.32
2023-08-29T21:08:38.201Z,4.13
2023-08-29T21:11:06.314Z,6.85
2023-08-29T21:13:36.445Z,3.42
2023-08-29T21:16:04.693Z,4.20
2023-08-29T21:18:33.324Z,4.72
2023-08-29T21:21:03.754Z,4.13
2023-08-29T21:23:31.699Z,3.88
2023-08-29T21:25:59.649Z,5.22
2023-08-29T21:28:28.587Z,4.50
2023-08-29T21:30:58.983Z,7.75
2023-08-29T21:33:27.068Z,3.65
2023-08-29T21:35:55.650Z,2.83
2023-08-29T21:38:23.768Z,3.22
2023-08-29T21:40:52.970Z,5.88
2023-08-29T21:43:22.173Z,4.97
2023-08-29T21:45:54.603Z,3.67
2023-08-29T21:48:25.858Z,4.55
2023-08-29T21:50:54.428Z,3.92
2023-08-29T21:53:22.847Z,3.80
2023-08-29T21:55:51.939Z,5.35
2023-08-29T21:58:20.436Z,8.38
2023-08-29T22:00:52.857Z,5.07
2023-08-29T22:03:21.369Z,4.38
2023-08-29T22:05:50.817Z,4.35
2023-08-29T22:08:20.744Z,4.78
2023-08-29T22:10:48.824Z,5.38
2023-08-29T22:13:16.829Z,6.13
2023-08-29T22:15:45.052Z,5.05
2023-08-29T22:18:13.181Z,3.75
2023-08-29T22:20:41.378Z,5.55
2023-08-29T22:23:10.726Z,6.55
2023-08-29T22:25:38.659Z,4.35
2023-08-29T22:28:07.190Z,5.82
2023-08-29T22:30:35.423Z,3.92
2023-08-29T22:33:04.794Z,5.22
2023-08-29T22:35:32.853Z,4.18
2023-08-29T22:38:00.862Z,4.20
2023-08-29T22:40:30.156Z,5.10
2023-08-29T22:42:57.984Z,6.68
2023-08-29T22:45:26.292Z,4.72
2023-08-29T22:47:54.307Z,5.88
2023-08-29T22:50:22.248Z,7.07
2023-08-29T22:52:50.545Z,7.88
2023-08-29T22:55:18.729Z,6.28
2023-08-29T22:57:48.008Z,5.63
2023-08-29T23:00:17.015Z,8.10
2023-08-29T23:02:45.012Z,5.88
2023-08-29T23:05:14.250Z,5.78
2023-08-29T23:07:42.231Z,5.38
2023-08-29T23:10:10.661Z,3.42
2023-08-29T23:12:38.677Z,6.05
2023-08-29T23:15:08.968Z,4.30
2023-08-29T23:17:36.995Z,3.83
2023-08-29T23:20:09.021Z,4.15
2023-08-29T23:22:37.177Z,4.20
2023-08-29T23:25:06.278Z,5.18
2023-08-29T23:27:36.008Z,5.03
2023-08-29T23:30:04.060Z,5.03
2023-08-29T23:32:33.868Z,5.68
2023-08-29T23:35:01.851Z,4.05
2023-08-29T23:37:29.811Z,3.88
2023-08-29T23:39:57.848Z,6.60
2023-08-29T23:42:25.698Z,4.72
2023-08-29T23:44:53.693Z,4.32
2023-08-29T23:47:21.606Z,4.68
2023-08-29T23:49:50.839Z,5.38
2023-08-29T23:52:18.734Z,7.28
2023-08-29T23:54:46.584Z,4.57
2023-08-29T23:57:14.469Z,4.65
2023-08-29T23:59:42.359Z,5.53
